Time;durP1;ratioP1;P1;durP2;ratioP2;P2;SDS_P1;SDS_P2;PMS_P1;PMS_P2;Temp;Humidity;BMP_temperature;BMP_pressure;BME280_temperature;BME280_humidity;BME280_pressure;Samples;Min_cycle;Max_cycle;Signal;HPM_P1;HPM_P2
2022/12/17 13:08:05;;;;;;;31.88;19.75;;;1.40;99.90;;;;;;5090871;28;20398;-62
2022/12/17 13:10:32;;;;;;;33.63;20.02;;;1.20;99.90;;;;;;5089775;28;20409;-59
2022/12/17 13:13:06;;;;;;;32.42;20.50;;;1.00;99.90;;;;;;5091424;28;20449;-60
2022/12/17 13:15:40;;;;;;;32.73;20.30;;;0.80;1.00;;;;;;5093707;28;20810;-61
2022/12/17 13:18:20;;;;;;;33.42;21.65;;;0.90;1.00;;;;;;5092986;28;20777;-60
2022/12/17 13:20:58;;;;;;;34.80;22.17;;;0.30;1.00;;;;;;5093791;28;20409;-61
2022/12/17 13:23:29;;;;;;;35.77;22.40;;;0.40;1.00;;;;;;5093927;28;20409;-63
2022/12/17 13:26:44;;;;;;;37.50;22.80;;;-0.10;1.00;;;;;;5101858;28;20431;-57
2022/12/17 13:29:20;;;;;;;37.77;23.53;;;-0.30;1.00;;;;;;5050345;28;20955;-61
2022/12/17 13:31:57;;;;;;;34.83;21.90;;;-0.30;1.00;;;;;;5111024;28;20470;-63
2022/12/17 13:34:29;;;;;;;32.83;21.33;;;-0.20;1.00;;;;;;5113980;28;20407;-59
2022/12/17 13:37:01;;;;;;;35.05;22.75;;;-0.40;1.00;;;;;;5111725;28;20415;-60
2022/12/17 13:39:45;;;;;;;35.72;22.92;;;-0.70;1.00;;;;;;5101353;28;20413;-64
2022/12/17 13:42:18;;;;;;;37.67;23.80;;;-0.90;1.00;;;;;;5096493;28;20415;-60
2022/12/17 13:44:46;;;;;;;37.40;23.52;;;-0.90;1.00;;;;;;5104880;28;20416;-63
2022/12/17 13:47:22;;;;;;;34.92;22.30;;;-0.70;1.00;;;;;;5092758;28;20414;-61
2022/12/17 13:49:53;;;;;;;33.83;22.58;;;-0.60;1.00;;;;;;5093077;28;21092;-62
2022/12/17 13:52:22;;;;;;;35.55;22.83;;;-0.60;1.00;;;;;;5092844;28;20786;-60
2022/12/17 13:54:50;;;;;;;36.75;24.02;;;-0.60;1.00;;;;;;5093275;28;20452;-64
2022/12/17 13:57:19;;;;;;;36.95;24.25;;;-0.70;1.00;;;;;;5100145;28;20413;-64
2022/12/17 13:59:50;;;;;;;37.75;23.73;;;-0.70;1.00;;;;;;5092788;28;20410;-64
2022/12/17 14:02:24;;;;;;;35.95;24.75;;;-0.90;1.00;;;;;;5092843;28;20950;-62
2022/12/17 14:04:54;;;;;;;37.50;23.67;;;-0.90;1.00;;;;;;5092478;28;20433;-63
2022/12/17 14:07:21;;;;;;;39.58;25.35;;;-0.80;1.00;;;;;;5092145;28;20884;-62
2022/12/17 14:09:49;;;;;;;37.13;24.38;;;-0.90;1.00;;;;;;5092405;28;20497;-59
2022/12/17 14:12:20;;;;;;;39.58;25.63;;;-0.90;3.60;;;;;;5092801;28;20823;-59
2022/12/17 14:14:50;;;;;;;36.30;23.80;;;-0.80;8.50;;;;;;5092787;28;20412;-58
2022/12/17 14:17:19;;;;;;;37.85;24.35;;;-0.80;10.70;;;;;;5091822;28;20467;-56
2022/12/17 14:19:46;;;;;;;36.63;23.48;;;-0.60;8.70;;;;;;5092192;28;20458;-57
2022/12/17 14:22:20;;;;;;;39.58;24.17;;;-0.60;7.30;;;;;;5092468;28;20422;-64
2022/12/17 14:24:47;;;;;;;36.83;22.83;;;-0.50;5.10;;;;;;5091683;28;20409;-61
2022/12/17 14:27:24;;;;;;;38.70;25.17;;;-0.40;1.00;;;;;;5091712;28;20888;-61
2022/12/17 14:29:51;;;;;;;35.40;23.90;;;-0.50;1.00;;;;;;5091956;28;20525;-57
2022/12/17 14:32:24;;;;;;;34.50;22.90;;;-0.40;1.00;;;;;;5092593;28;20417;-58
2022/12/17 14:34:50;;;;;;;35.10;22.95;;;-0.40;1.00;;;;;;5092862;28;20416;-56
2022/12/17 14:37:22;;;;;;;35.13;22.23;;;-0.30;1.00;;;;;;5091718;28;20413;-58
2022/12/17 14:39:49;;;;;;;37.65;23.50;;;-0.20;1.00;;;;;;5092300;28;20531;-58
2022/12/17 14:42:28;;;;;;;33.88;22.75;;;-0.20;1.00;;;;;;5092135;28;20459;-57
2022/12/17 14:44:57;;;;;;;34.80;22.85;;;-0.20;1.00;;;;;;5092221;28;20429;-57
2022/12/17 14:47:25;;;;;;;34.15;24.05;;;-0.20;1.00;;;;;;5091355;28;20414;-62
2022/12/17 14:49:56;;;;;;;34.45;23.00;;;-0.10;1.00;;;;;;5088805;28;20826;-65
2022/12/17 14:52:39;;;;;;;38.67;23.92;;;-0.10;1.00;;;;;;5091984;28;20421;-62
2022/12/17 14:55:24;;;;;;;38.78;25.38;;;-0.10;1.00;;;;;;5092087;28;20603;-62
2022/12/17 14:57:51;;;;;;;40.33;25.92;;;-0.20;1.00;;;;;;5091001;28;20417;-59
2022/12/17 15:00:18;;;;;;;50.10;34.47;;;-0.20;1.00;;;;;;5091673;28;20414;-62
2022/12/17 15:02:49;;;;;;;58.13;37.40;;;-0.30;1.00;;;;;;5091882;28;20467;-61
2022/12/17 15:05:16;;;;;;;47.42;32.50;;;-0.40;1.00;;;;;;5091043;28;20421;-60
2022/12/17 15:07:44;;;;;;;45.83;31.23;;;-0.40;1.00;;;;;;5090827;28;20494;-58
2022/12/17 15:10:13;;;;;;;40.83;26.58;;;-0.40;1.00;;;;;;5091445;28;20777;-59
2022/12/17 15:12:41;;;;;;;38.80;25.20;;;-0.50;1.00;;;;;;5091412;28;20433;-63
2022/12/17 15:15:12;;;;;;;39.45;24.88;;;-0.50;1.00;;;;;;5091480;28;20406;-62
2022/12/17 15:17:39;;;;;;;40.42;24.67;;;-0.50;1.00;;;;;;5090588;28;20439;-59
2022/12/17 15:20:08;;;;;;;35.83;25.27;;;-0.70;1.00;;;;;;5091406;28;20946;-59
2022/12/17 15:22:40;;;;;;;41.50;26.45;;;-0.80;1.00;;;;;;5091055;28;20780;-57
2022/12/17 15:25:11;;;;;;;39.40;25.85;;;-0.90;1.00;;;;;;5090953;28;20430;-62
2022/12/17 15:27:38;;;;;;;41.50;25.98;;;-0.80;1.00;;;;;;5090711;28;20417;-62
2022/12/17 15:30:07;;;;;;;44.22;28.05;;;-0.90;1.00;;;;;;5091199;28;20417;-62
2022/12/17 15:32:33;;;;;;;41.47;27.50;;;-1.00;1.00;;;;;;5090995;28;20538;-62
2022/12/17 15:35:00;;;;;;;40.05;27.45;;;-1.10;1.00;;;;;;5090420;28;20409;-62
2022/12/17 15:37:27;;;;;;;45.30;29.35;;;-1.20;1.00;;;;;;5090510;28;20480;-62
2022/12/17 15:39:55;;;;;;;40.35;28.88;;;-1.20;1.00;;;;;;5090764;28;20417;-62
2022/12/17 15:45:08;;;;;;;45.60;30.23;;;-1.20;1.00;;;;;;5090942;28;20455;-62
2022/12/17 15:47:35;;;;;;;44.63;30.45;;;-1.30;1.00;;;;;;5090344;28;20497;-62
2022/12/17 15:50:02;;;;;;;43.95;30.35;;;-1.40;1.00;;;;;;5090660;28;20414;-62
2022/12/17 15:52:29;;;;;;;52.55;36.85;;;-1.50;1.00;;;;;;5090914;28;20781;-61
2022/12/17 15:54:55;;;;;;;62.58;43.85;;;-1.50;1.00;;;;;;5090687;28;20831;-61
2022/12/17 15:57:24;;;;;;;55.92;38.15;;;-1.50;1.00;;;;;;5089496;28;20900;-61
2022/12/17 15:59:51;;;;;;;52.63;36.00;;;-1.50;1.00;;;;;;5090861;28;20410;-62
2022/12/17 16:02:17;;;;;;;55.00;36.53;;;-1.60;1.00;;;;;;5090735;28;20565;-62
2022/12/17 16:04:44;;;;;;;54.60;36.53;;;-1.60;1.00;;;;;;5090627;28;20414;-62
2022/12/17 16:07:11;;;;;;;50.33;35.67;;;-1.60;1.00;;;;;;5089426;28;20418;-61
2022/12/17 16:09:37;;;;;;;51.50;35.43;;;-1.70;1.00;;;;;;5090400;28;20460;-62
2022/12/17 16:12:04;;;;;;;54.03;35.15;;;-1.80;1.00;;;;;;5090282;28;21018;-62
2022/12/17 16:14:32;;;;;;;55.00;36.47;;;-1.90;1.00;;;;;;5090614;28;20418;-62
2022/12/17 16:16:59;;;;;;;64.95;41.45;;;-2.00;1.00;;;;;;5089922;28;20421;-61
2022/12/17 16:19:26;;;;;;;77.57;45.43;;;-2.10;1.00;;;;;;5090492;28;20488;-60
2022/12/17 16:21:53;;;;;;;63.93;40.33;;;-2.00;1.00;;;;;;5089919;28;20410;-60
2022/12/17 16:24:19;;;;;;;58.30;37.63;;;-1.90;2.30;;;;;;5089908;28;20417;-61
2022/12/17 16:26:46;;;;;;;58.00;38.03;;;-1.80;2.70;;;;;;5089785;28;20437;-60
2022/12/17 16:29:13;;;;;;;56.15;36.05;;;-1.90;1.00;;;;;;5090257;28;20417;-60
2022/12/17 16:31:41;;;;;;;50.95;34.25;;;-1.90;1.00;;;;;;5090294;28;20465;-60
2022/12/17 16:34:09;;;;;;;50.15;33.58;;;-1.90;1.00;;;;;;5090045;28;20463;-59
2022/12/17 16:36:35;;;;;;;54.23;36.07;;;-2.10;1.00;;;;;;5089865;28;20496;-59
2022/12/17 16:39:03;;;;;;;64.28;43.85;;;-2.20;1.00;;;;;;5089774;28;20440;-60
2022/12/17 16:41:29;;;;;;;63.97;42.00;;;-2.30;1.00;;;;;;5090546;28;20480;-57
2022/12/17 16:43:56;;;;;;;63.25;40.75;;;-2.30;1.00;;;;;;5090057;28;20410;-58
2022/12/17 16:46:26;;;;;;;59.00;38.63;;;-2.30;1.00;;;;;;5090356;28;20447;-57
2022/12/17 16:48:54;;;;;;;54.55;37.65;;;-2.40;1.00;;;;;;5093939;28;20405;-54
2022/12/17 16:51:24;;;;;;;52.63;35.38;;;-2.50;1.00;;;;;;5093957;28;20410;-57
2022/12/17 16:53:50;;;;;;;43.15;30.10;;;-2.50;1.00;;;;;;5094158;28;20413;-58
2022/12/17 16:56:18;;;;;;;56.38;37.33;;;-2.60;1.00;;;;;;5098013;28;20408;-65
2022/12/17 16:58:49;;;;;;;49.25;32.08;;;-2.80;1.00;;;;;;5097706;28;20414;-64
2022/12/17 17:01:20;;;;;;;48.03;30.45;;;-2.80;1.00;;;;;;5094414;28;20812;-64
2022/12/17 17:03:46;;;;;;;48.15;29.60;;;-3.00;1.00;;;;;;5094169;28;20437;-62
2022/12/17 17:06:14;;;;;;;40.47;26.00;;;-3.10;1.00;;;;;;5093628;28;20437;-62
2022/12/17 17:08:41;;;;;;;44.47;28.23;;;-3.20;1.00;;;;;;5093594;28;20409;-62
2022/12/17 17:11:10;;;;;;;40.03;25.17;;;-3.40;1.00;;;;;;5094104;28;20414;-63
2022/12/17 17:13:37;;;;;;;32.50;21.30;;;-3.30;2.90;;;;;;5094089;28;20764;-63
2022/12/17 17:16:05;;;;;;;32.88;20.15;;;-3.60;4.40;;;;;;5093833;28;20776;-63
2022/12/17 17:18:33;;;;;;;32.80;20.27;;;-3.80;19.10;;;;;;5093433;28;20928;-63
2022/12/17 17:21:15;;;;;;;28.45;18.13;;;-3.80;42.20;;;;;;5094035;28;20417;-63
2022/12/17 17:23:43;;;;;;;27.95;17.48;;;-3.80;58.20;;;;;;5094039;28;20418;-62
2022/12/17 17:26:10;;;;;;;24.40;16.17;;;-3.80;66.90;;;;;;5093457;28;20425;-63
2022/12/17 17:28:37;;;;;;;24.23;16.50;;;-3.70;70.60;;;;;;5093418;28;20440;-63
2022/12/17 17:31:06;;;;;;;22.47;15.30;;;-3.70;66.10;;;;;;5103960;28;20814;-61
2022/12/17 17:33:34;;;;;;;26.50;17.45;;;-3.60;59.80;;;;;;5114207;28;20469;-62
2022/12/17 17:36:04;;;;;;;23.70;16.77;;;-3.20;82.70;;;;;;5105545;28;20525;-62
2022/12/17 17:38:34;;;;;;;19.08;13.68;;;-2.40;99.90;;;;;;5098756;28;20821;-60
2022/12/17 17:41:01;;;;;;;22.20;14.73;;;-2.40;99.90;;;;;;5093714;28;20492;-63
2022/12/17 17:43:28;;;;;;;24.23;16.77;;;-2.30;89.20;;;;;;5093268;28;20439;-63
2022/12/17 17:45:55;;;;;;;26.63;17.88;;;-2.40;21.60;;;;;;5093100;28;20432;-62
2022/12/17 17:48:22;;;;;;;28.92;18.55;;;-2.50;1.00;;;;;;5092529;28;20413;-61
2022/12/17 17:50:58;;;;;;;22.92;15.77;;;-2.60;1.00;;;;;;5093352;28;20416;-61
2022/12/17 17:53:25;;;;;;;23.02;14.65;;;-2.70;1.00;;;;;;5093189;28;20895;-62
2022/12/17 17:55:53;;;;;;;26.52;15.70;;;-3.00;1.00;;;;;;5101431;28;20495;-61
2022/12/17 17:58:20;;;;;;;25.35;17.27;;;-3.10;1.00;;;;;;5089257;28;20480;-63
2022/12/17 18:00:47;;;;;;;26.98;17.88;;;-3.10;1.00;;;;;;5098295;28;20417;-61
2022/12/17 18:03:13;;;;;;;29.27;19.63;;;-3.20;1.00;;;;;;5113384;28;20416;-60
2022/12/17 18:05:41;;;;;;;29.35;21.08;;;-3.20;1.00;;;;;;5112804;28;20420;-63
2022/12/17 18:08:08;;;;;;;31.67;20.73;;;-3.30;1.00;;;;;;5107408;28;20909;-60
2022/12/17 18:10:35;;;;;;;29.23;19.73;;;-3.30;1.00;;;;;;5089260;28;20474;-61
2022/12/17 18:15:48;;;;;;;26.98;17.15;;;-3.40;1.00;;;;;;5092851;28;20769;-59
2022/12/17 18:18:14;;;;;;;26.85;18.35;;;-3.50;1.00;;;;;;5091900;28;20410;-60
2022/12/17 18:20:41;;;;;;;26.13;16.73;;;-3.50;1.00;;;;;;5092748;28;20417;-57
2022/12/17 18:23:08;;;;;;;26.73;17.13;;;-3.60;1.00;;;;;;5091954;28;20414;-60
2022/12/17 18:25:35;;;;;;;21.77;14.60;;;-3.70;1.00;;;;;;5092644;28;20437;-63
2022/12/17 18:28:03;;;;;;;23.02;15.00;;;-3.70;8.80;;;;;;5091711;28;20941;-61
2022/12/17 18:30:30;;;;;;;23.85;15.35;;;-3.70;13.00;;;;;;5092321;28;20900;-61
2022/12/17 18:32:57;;;;;;;21.00;14.85;;;-3.70;14.70;;;;;;5092517;28;20792;-61
2022/12/17 18:35:23;;;;;;;27.10;17.60;;;-3.70;15.30;;;;;;5092253;28;20824;-61
2022/12/17 18:37:50;;;;;;;26.25;17.67;;;-3.70;17.80;;;;;;5091527;28;20884;-60
2022/12/17 18:40:17;;;;;;;25.23;17.30;;;-3.70;18.30;;;;;;5092530;28;20440;-62
2022/12/17 18:45:29;;;;;;;27.65;18.38;;;-3.60;14.80;;;;;;5091869;28;20405;-62
2022/12/17 18:47:56;;;;;;;26.48;16.13;;;-3.60;13.20;;;;;;5091344;28;20440;-62
2022/12/17 18:50:22;;;;;;;21.67;15.18;;;-3.70;12.20;;;;;;5092207;28;20409;-63
2022/12/17 18:52:49;;;;;;;21.75;14.00;;;-3.70;19.20;;;;;;5088064;28;20758;-61
2022/12/17 18:55:16;;;;;;;21.27;12.95;;;-3.70;22.30;;;;;;5092182;28;20858;-61
2022/12/17 18:57:43;;;;;;;20.73;13.65;;;-3.60;22.00;;;;;;5091202;28;20406;-62
2022/12/17 19:00:11;;;;;;;20.23;13.05;;;-3.50;19.30;;;;;;5092033;28;20410;-62
2022/12/17 19:02:39;;;;;;;20.02;13.68;;;-3.50;14.70;;;;;;5091635;28;20417;-60
2022/12/17 19:05:06;;;;;;;22.35;14.23;;;-3.50;8.80;;;;;;5091730;28;20406;-62
2022/12/17 19:07:33;;;;;;;21.00;13.05;;;-3.60;7.30;;;;;;5090970;28;20418;-64
2022/12/17 19:09:59;;;;;;;21.55;13.30;;;-3.50;11.00;;;;;;5099952;28;20439;-65
2022/12/17 19:12:26;;;;;;;21.73;14.15;;;-3.50;8.90;;;;;;5105922;28;20809;-63
2022/12/17 19:14:52;;;;;;;20.40;14.35;;;-3.50;6.80;;;;;;5104063;28;20985;-62
2022/12/17 19:17:19;;;;;;;21.95;14.00;;;-3.50;6.60;;;;;;5102577;28;20453;-64
2022/12/17 19:19:47;;;;;;;22.20;14.55;;;-3.40;5.40;;;;;;5095380;28;20414;-64
2022/12/17 19:22:14;;;;;;;25.92;17.52;;;-3.50;1.50;;;;;;5091143;28;20463;-64
2022/12/17 19:24:41;;;;;;;36.33;24.08;;;-3.50;3.90;;;;;;5089193;28;21125;-64
2022/12/17 19:27:07;;;;;;;25.88;18.10;;;-3.60;5.60;;;;;;5090435;28;20474;-63
2022/12/17 19:29:34;;;;;;;24.77;16.15;;;-3.60;13.60;;;;;;5091337;28;20414;-58
2022/12/17 19:32:01;;;;;;;21.40;15.07;;;-3.60;19.80;;;;;;5090941;28;21042;-59
2022/12/17 19:34:27;;;;;;;21.20;14.73;;;-3.50;24.30;;;;;;5090870;28;20493;-59
2022/12/17 19:36:55;;;;;;;20.25;13.02;;;-3.50;23.60;;;;;;5090404;28;20406;-63
2022/12/17 19:39:22;;;;;;;19.33;12.82;;;-3.50;21.00;;;;;;5090301;28;20436;-61
2022/12/17 19:41:49;;;;;;;17.92;12.73;;;-3.50;20.40;;;;;;5091193;28;20819;-62
2022/12/17 19:44:18;;;;;;;18.98;12.52;;;-3.50;21.30;;;;;;5091480;28;20498;-61
2022/12/17 19:46:45;;;;;;;18.98;12.88;;;-3.40;20.50;;;;;;5090499;28;20452;-61
2022/12/17 19:49:13;;;;;;;18.70;12.63;;;-3.40;17.80;;;;;;5091133;28;20509;-61
2022/12/17 19:51:42;;;;;;;21.13;13.43;;;-3.40;15.50;;;;;;5090798;28;20409;-61
2022/12/17 19:54:11;;;;;;;19.45;14.02;;;-3.40;13.80;;;;;;5091048;28;20425;-61
2022/12/17 19:56:38;;;;;;;22.40;14.40;;;-3.30;12.90;;;;;;5090382;28;20409;-61
2022/12/17 19:59:06;;;;;;;19.45;13.35;;;-3.40;10.10;;;;;;5090368;28;20422;-61
2022/12/17 20:01:35;;;;;;;20.33;13.88;;;-3.40;7.80;;;;;;5099286;28;20467;-63
2022/12/17 20:04:02;;;;;;;20.17;14.68;;;-3.40;8.70;;;;;;5109544;28;20407;-62
2022/12/17 20:06:30;;;;;;;18.13;12.75;;;-3.40;6.00;;;;;;5110503;28;20419;-62
2022/12/17 20:08:58;;;;;;;18.65;11.45;;;-3.40;6.40;;;;;;5110894;28;20503;-62
2022/12/17 20:11:33;;;;;;;20.60;12.88;;;-3.30;6.10;;;;;;5110798;28;20870;-61
2022/12/17 20:14:01;;;;;;;18.58;11.30;;;-3.30;1.70;;;;;;5110919;28;20408;-62
2022/12/17 20:16:30;;;;;;;17.13;11.15;;;-3.20;1.00;;;;;;5110491;28;20431;-61
2022/12/17 20:18:58;;;;;;;17.50;10.68;;;-3.10;1.00;;;;;;5110686;28;20412;-62
2022/12/17 20:21:25;;;;;;;16.35;11.13;;;-3.10;1.00;;;;;;5110196;28;20412;-62
2022/12/17 20:23:52;;;;;;;18.00;11.80;;;-3.10;1.00;;;;;;5095864;28;20440;-61
2022/12/17 20:26:19;;;;;;;16.50;11.00;;;-3.10;1.00;;;;;;5089694;28;20873;-61
2022/12/17 20:28:47;;;;;;;19.15;12.45;;;-3.10;1.00;;;;;;5090138;28;20800;-61
2022/12/17 20:31:14;;;;;;;19.50;12.73;;;-3.20;1.00;;;;;;5090249;28;20418;-61
2022/12/17 20:33:40;;;;;;;16.63;10.43;;;-3.20;1.00;;;;;;5090217;28;20414;-61
2022/12/17 20:36:10;;;;;;;17.67;11.50;;;-3.20;1.00;;;;;;5089967;28;20410;-60
2022/12/17 20:38:37;;;;;;;18.02;11.55;;;-3.10;1.00;;;;;;5089605;28;20414;-61
2022/12/17 20:41:09;;;;;;;18.92;11.35;;;-3.10;1.00;;;;;;5090651;28;20457;-62
2022/12/17 20:43:36;;;;;;;16.23;11.05;;;-3.00;1.00;;;;;;5090270;28;20492;-61
2022/12/17 20:46:05;;;;;;;17.33;11.80;;;-3.00;1.00;;;;;;5089902;28;20902;-63
2022/12/17 20:48:32;;;;;;;16.15;10.23;;;-2.60;33.40;;;;;;5089688;28;20429;-63
2022/12/17 20:51:03;;;;;;;16.38;9.80;;;-2.20;14.20;;;;;;5089819;28;20831;-63
2022/12/17 20:53:30;;;;;;;14.52;10.35;;;-2.10;1.00;;;;;;5090229;28;20410;-61
2022/12/17 20:56:01;;;;;;;15.77;10.82;;;-1.90;1.00;;;;;;5092337;28;20469;-62
2022/12/17 20:58:27;;;;;;;13.00;9.77;;;-2.30;1.00;;;;;;5103896;28;20404;-62
2022/12/17 21:01:04;;;;;;;15.70;9.38;;;-2.50;1.00;;;;;;5108824;28;20407;-62
2022/12/17 21:03:31;;;;;;;14.82;9.52;;;-2.70;1.00;;;;;;5098289;28;20471;-62
2022/12/17 21:06:04;;;;;;;12.23;8.60;;;-2.70;1.00;;;;;;5099662;28;20410;-61
2022/12/17 21:08:32;;;;;;;17.23;9.57;;;-2.90;1.00;;;;;;5095274;28;20433;-62
2022/12/17 21:10:58;;;;;;;13.82;9.15;;;-2.80;1.00;;;;;;5090531;28;20417;-62
2022/12/17 21:13:31;;;;;;;16.63;11.32;;;-2.90;1.00;;;;;;5089866;28;20447;-62
2022/12/17 21:15:59;;;;;;;19.13;10.20;;;-2.90;1.00;;;;;;5089538;28;20810;-61
2022/12/17 21:18:29;;;;;;;13.68;10.05;;;-2.90;1.00;;;;;;5089449;28;20406;-61
2022/12/17 21:20:57;;;;;;;15.55;9.77;;;-2.80;1.00;;;;;;5090067;28;20459;-60
2022/12/17 21:23:24;;;;;;;13.20;8.57;;;-2.90;1.00;;;;;;5089881;28;20565;-61
2022/12/17 21:25:59;;;;;;;14.73;8.57;;;-2.80;1.00;;;;;;5098293;28;20412;-61
2022/12/17 21:28:27;;;;;;;13.02;8.45;;;-2.90;1.00;;;;;;5089187;28;20958;-60
2022/12/17 21:30:53;;;;;;;12.75;8.65;;;-2.80;1.00;;;;;;5090031;28;20406;-61
2022/12/17 21:33:20;;;;;;;12.68;7.95;;;-2.60;1.00;;;;;;5090317;28;20421;-62
2022/12/17 21:35:48;;;;;;;11.40;7.83;;;-2.80;1.00;;;;;;5093523;28;20429;-62
2022/12/17 21:38:15;;;;;;;12.13;7.93;;;-2.80;1.00;;;;;;5093049;28;20468;-62
2022/12/17 21:40:42;;;;;;;11.13;7.35;;;-2.90;1.00;;;;;;5093515;28;20417;-61
2022/12/17 21:43:09;;;;;;;11.82;7.35;;;-2.80;1.00;;;;;;5093353;28;20417;-62
2022/12/17 21:45:37;;;;;;;12.10;7.68;;;-2.80;1.00;;;;;;5093511;28;20487;-63
2022/12/17 21:48:05;;;;;;;11.02;7.57;;;-2.80;1.00;;;;;;5092867;28;20429;-62
2022/12/17 21:50:32;;;;;;;11.63;7.13;;;-2.80;1.00;;;;;;5093518;28;20410;-61
2022/12/17 21:53:01;;;;;;;11.57;7.20;;;-2.80;1.00;;;;;;5093496;28;20445;-61
2022/12/17 21:55:27;;;;;;;12.00;7.70;;;-2.80;1.00;;;;;;5093330;28;20425;-60
2022/12/17 21:57:54;;;;;;;13.02;8.55;;;-2.90;1.00;;;;;;5092360;28;20492;-61
2022/12/17 22:00:24;;;;;;;12.50;8.23;;;-2.90;1.00;;;;;;5093567;28;20420;-59
2022/12/17 22:02:50;;;;;;;13.73;9.30;;;-3.00;1.00;;;;;;5093976;28;20479;-60
2022/12/17 22:05:17;;;;;;;14.30;9.48;;;-2.90;1.00;;;;;;5094103;28;20418;-62
2022/12/17 22:07:44;;;;;;;14.27;9.93;;;-2.80;1.00;;;;;;5092931;28;20427;-63
2022/12/17 22:10:13;;;;;;;11.93;7.80;;;-2.80;1.00;;;;;;5096166;28;20535;-62
2022/12/17 22:15:24;;;;;;;11.50;7.70;;;-2.90;1.00;;;;;;5093186;28;20405;-62
2022/12/17 22:17:52;;;;;;;10.93;7.43;;;-2.80;1.00;;;;;;5092308;28;20414;-59
2022/12/17 22:20:19;;;;;;;10.20;6.90;;;-2.70;1.00;;;;;;5092863;28;20888;-54
2022/12/17 22:22:45;;;;;;;10.25;5.75;;;-2.70;1.00;;;;;;5092940;28;20463;-58
2022/12/17 22:25:14;;;;;;;7.57;5.70;;;-2.60;1.00;;;;;;5093143;28;20417;-55
2022/12/17 22:27:41;;;;;;;7.80;5.55;;;-2.60;1.00;;;;;;5092185;28;20912;-54
2022/12/17 22:33:01;;;;;;;9.67;6.20;;;-2.60;1.00;;;;;;5092920;28;20404;-57
2022/12/17 22:35:28;;;;;;;10.43;7.20;;;-2.40;1.00;;;;;;5092945;28;20421;-55
2022/12/17 22:37:55;;;;;;;8.50;6.05;;;-2.50;1.00;;;;;;5092345;28;20413;-52
2022/12/17 22:40:23;;;;;;;9.55;6.07;;;-2.60;1.00;;;;;;5092593;28;20417;-54
2022/12/17 22:45:37;;;;;;;9.80;5.18;;;-2.50;1.00;;;;;;5092030;28;20389;-51
2022/12/17 22:48:04;;;;;;;7.75;5.50;;;-2.40;1.00;;;;;;5092245;28;20426;-57
2022/12/17 22:50:30;;;;;;;7.20;5.03;;;-2.30;1.00;;;;;;5092456;28;20487;-57
2022/12/17 22:52:57;;;;;;;6.38;4.65;;;-2.30;1.00;;;;;;5092324;28;20406;-59
2022/12/17 22:55:25;;;;;;;8.18;5.20;;;-2.30;1.00;;;;;;5092691;28;20414;-59
2022/12/17 22:57:52;;;;;;;8.48;5.57;;;-2.20;1.00;;;;;;5091882;28;20409;-57
2022/12/17 23:00:22;;;;;;;9.27;6.00;;;-2.30;1.00;;;;;;5092044;28;20417;-57
2022/12/17 23:02:52;;;;;;;8.68;5.43;;;-2.30;1.00;;;;;;5092438;28;20406;-57
2022/12/17 23:05:18;;;;;;;7.65;4.90;;;-2.30;99.90;;;;;;5092184;28;20892;-57
2022/12/17 23:07:45;;;;;;;9.43;5.53;;;-2.30;99.90;;;;;;5091749;28;20418;-58
2022/12/17 23:10:12;;;;;;;9.10;5.70;;;-2.20;99.90;;;;;;5091910;28;20459;-57
2022/12/17 23:12:52;;;;;;;6.68;4.88;;;-2.30;99.90;;;;;;5091990;28;20413;-57
2022/12/17 23:15:25;;;;;;;6.18;4.40;;;-2.30;99.90;;;;;;5092027;28;20424;-57
2022/12/17 23:17:54;;;;;;;7.13;5.32;;;-2.30;99.90;;;;;;5092073;28;20410;-58
2022/12/17 23:20:22;;;;;;;11.27;7.40;;;-2.20;99.90;;;;;;5091818;28;20442;-57
2022/12/17 23:22:48;;;;;;;11.88;6.25;;;-2.20;99.90;;;;;;5091947;28;20467;-57
2022/12/17 23:25:16;;;;;;;10.03;6.40;;;-2.20;99.90;;;;;;5091760;28;20513;-57
2022/12/17 23:27:45;;;;;;;9.70;6.35;;;-2.20;99.90;;;;;;5091504;28;20942;-54
2022/12/17 23:30:13;;;;;;;7.88;5.47;;;-2.20;99.90;;;;;;5091734;28;20414;-58
2022/12/17 23:32:40;;;;;;;7.78;5.40;;;-2.10;99.90;;;;;;5091802;28;20432;-58
2022/12/17 23:35:08;;;;;;;8.32;5.10;;;-2.10;99.90;;;;;;5091702;28;20459;-56
2022/12/17 23:37:34;;;;;;;9.65;5.60;;;-2.10;99.90;;;;;;5091190;28;20468;-56
2022/12/17 23:40:01;;;;;;;7.47;5.10;;;-2.00;99.90;;;;;;5091477;28;20414;-57
2022/12/17 23:42:28;;;;;;;6.72;4.82;;;-2.10;99.90;;;;;;5091799;28;20410;-55
2022/12/17 23:44:56;;;;;;;8.57;5.20;;;-2.10;99.90;;;;;;5091326;28;20938;-54
2022/12/17 23:47:23;;;;;;;7.28;4.53;;;-2.10;99.90;;;;;;5091336;28;20409;-58
2022/12/17 23:49:49;;;;;;;9.38;5.00;;;-2.10;99.90;;;;;;5091363;28;20410;-57
2022/12/17 23:52:16;;;;;;;8.45;4.78;;;-2.00;99.90;;;;;;5091177;28;20414;-57
2022/12/17 23:54:43;;;;;;;7.50;4.75;;;-2.00;99.90;;;;;;5091204;28;20872;-58
2022/12/17 23:57:09;;;;;;;8.63;5.00;;;-1.90;99.90;;;;;;5090245;28;20467;-55
2022/12/17 23:59:36;;;;;;;7.05;4.85;;;-1.80;99.90;;;;;;5091236;28;20413;-58
